createdAt,value
2023-05-06T00:04:33.745Z,19.17
2023-05-06T00:09:36.102Z,19.28
2023-05-06T00:14:38.465Z,19.11
2023-05-06T00:19:40.878Z,19.36
2023-05-06T00:24:43.169Z,19.39
2023-05-06T00:29:45.405Z,19.32
2023-05-06T00:34:48.169Z,19.38
2023-05-06T00:39:50.369Z,19.49
2023-05-06T00:44:53.068Z,19.06
2023-05-06T00:49:55.400Z,19.36
2023-05-06T00:54:57.947Z,19.39
2023-05-06T01:00:00.252Z,19.34
2023-05-06T01:05:03.785Z,19.38
2023-05-06T01:10:14.175Z,19.21
2023-05-06T01:15:22.559Z,19.34
2023-05-06T01:20:27.312Z,19.30
2023-05-06T01:25:30.691Z,18.92
2023-05-06T01:30:39.408Z,18.75
2023-05-06T01:35:55.302Z,18.83
2023-05-06T01:40:58.980Z,18.68
2023-05-06T01:46:02.002Z,18.68
2023-05-06T01:51:04.765Z,18.60
2023-05-06T01:56:07.721Z,18.82
2023-05-06T02:01:10.224Z,18.80
2023-05-06T02:06:12.701Z,18.96
2023-05-06T02:11:15.121Z,18.85
2023-05-06T02:16:17.396Z,18.77
2023-05-06T02:21:19.688Z,18.95
2023-05-06T02:26:21.914Z,18.95
2023-05-06T02:31:24.319Z,18.46
2023-05-06T02:36:27.005Z,18.32
2023-05-06T02:41:29.352Z,18.44
2023-05-06T02:46:31.639Z,18.36
2023-05-06T02:51:33.970Z,18.32
2023-05-06T02:56:36.354Z,18.03
2023-05-06T03:01:38.807Z,18.52
2023-05-06T03:06:41.033Z,18.47
2023-05-06T03:11:43.487Z,18.46
2023-05-06T03:16:45.764Z,18.59
2023-05-06T03:21:48.652Z,18.50
2023-05-06T03:26:51.209Z,18.43
2023-05-06T03:31:56.928Z,18.10
2023-05-06T03:36:59.282Z,18.39
2023-05-06T03:42:01.507Z,18.37
2023-05-06T03:47:03.719Z,18.54
2023-05-06T03:52:06.303Z,18.28
2023-05-06T03:57:08.514Z,18.29
2023-05-06T04:02:10.794Z,18.09
2023-05-06T04:07:13.105Z,18.32
2023-05-06T04:12:15.455Z,18.44
2023-05-06T04:17:17.783Z,18.45
2023-05-06T04:22:20.527Z,18.24
2023-05-06T04:27:22.939Z,18.23
2023-05-06T04:32:28.011Z,18.51
2023-05-06T04:37:31.221Z,18.55
2023-05-06T04:42:33.922Z,18.64
2023-05-06T04:47:36.345Z,18.63
2023-05-06T04:52:38.907Z,18.64
2023-05-06T04:57:41.166Z,18.80
2023-05-06T05:02:43.325Z,18.86
2023-05-06T05:07:45.864Z,18.88
2023-05-06T05:12:48.053Z,19.00
2023-05-06T05:17:51.502Z,19.01
2023-05-06T05:22:53.600Z,18.45
2023-05-06T05:27:55.733Z,18.78
2023-05-06T05:32:58.205Z,18.84
2023-05-06T05:38:00.503Z,18.54
2023-05-06T05:43:02.684Z,18.96
2023-05-06T05:48:05.299Z,19.10
2023-05-06T05:53:07.483Z,19.29
2023-05-06T05:58:11.967Z,19.31
2023-05-06T06:03:14.241Z,19.49
2023-05-06T06:08:19.178Z,19.59
2023-05-06T06:13:22.228Z,19.74
2023-05-06T06:18:24.780Z,19.77
2023-05-06T06:23:27.224Z,19.88
2023-05-06T06:28:29.438Z,20.01
2023-05-06T06:33:31.897Z,19.98
2023-05-06T06:38:34.665Z,19.97
2023-05-06T06:43:38.864Z,20.13
2023-05-06T06:48:40.995Z,20.07
2023-05-06T06:53:43.528Z,20.22
2023-05-06T06:58:45.820Z,20.26
2023-05-06T07:03:48.057Z,19.92
2023-05-06T07:08:50.568Z,20.12
2023-05-06T07:13:52.763Z,20.12
2023-05-06T07:18:55.026Z,20.47
2023-05-06T07:23:57.372Z,20.47
2023-05-06T07:28:59.530Z,20.57
2023-05-06T07:34:01.963Z,20.81
2023-05-06T07:39:04.464Z,20.91
2023-05-06T07:44:07.215Z,20.95
2023-05-06T07:49:09.450Z,20.83
2023-05-06T07:54:11.866Z,20.93
2023-05-06T07:59:15.280Z,21.57
2023-05-06T08:09:22.957Z,21.27
2023-05-06T08:14:29.700Z,21.87
2023-05-06T08:19:32.025Z,21.54
2023-05-06T08:24:34.273Z,21.93
2023-05-06T08:29:36.827Z,22.14
2023-05-06T08:34:38.929Z,22.27
2023-05-06T08:39:42.005Z,22.52
2023-05-06T08:44:45.052Z,22.48
2023-05-06T08:49:47.920Z,22.79
2023-05-06T08:54:54.965Z,22.45
2023-05-06T08:59:57.340Z,23.08
2023-05-06T09:05:00.719Z,23.04
2023-05-06T09:10:15.599Z,23.15
2023-05-06T09:15:17.997Z,23.03
2023-05-06T09:20:20.526Z,23.18
2023-05-06T09:25:22.909Z,22.93
2023-05-06T09:30:25.086Z,23.14
2023-05-06T09:35:36.935Z,22.51
2023-05-06T09:40:39.741Z,22.55
2023-05-06T09:45:42.440Z,22.68
2023-05-06T09:50:44.888Z,22.66
2023-05-06T09:55:47.738Z,22.83
2023-05-06T10:00:52.623Z,22.78
2023-05-06T10:05:57.832Z,23.00
2023-05-06T10:11:02.090Z,22.62
2023-05-06T10:16:07.189Z,23.12
2023-05-06T10:21:17.790Z,23.04
2023-05-06T10:26:22.410Z,23.59
2023-05-06T10:31:53.439Z,24.16
2023-05-06T10:36:58.289Z,24.58
2023-05-06T10:42:00.668Z,24.62
2023-05-06T10:47:02.948Z,24.80
2023-05-06T10:52:14.253Z,24.93
2023-05-06T10:57:16.733Z,25.48
2023-05-06T11:02:20.945Z,25.80
2023-05-06T11:07:24.811Z,25.73
2023-05-06T11:12:47.041Z,25.61
2023-05-06T11:17:49.486Z,25.50
2023-05-06T11:22:52.864Z,25.38
2023-05-06T11:27:56.697Z,25.33
2023-05-06T11:33:05.559Z,25.46
2023-05-06T11:38:08.118Z,25.64
2023-05-06T11:43:14.587Z,25.92
2023-05-06T11:48:18.681Z,26.27
2023-05-06T11:53:23.594Z,26.51
2023-05-06T11:58:28.098Z,26.80
2023-05-06T12:03:32.794Z,27.11
2023-05-06T12:08:37.455Z,27.31
2023-05-06T12:13:41.081Z,26.90
2023-05-06T12:18:45.211Z,27.09
2023-05-06T12:23:52.800Z,27.56
2023-05-06T12:29:12.345Z,27.88
2023-05-06T12:34:16.680Z,27.83
2023-05-06T12:39:18.903Z,27.64
2023-05-06T12:44:35.296Z,27.86
2023-05-06T12:49:51.380Z,28.19
2023-05-06T12:54:53.821Z,28.10
2023-05-06T12:59:56.710Z,28.37
2023-05-06T13:04:58.947Z,28.74
2023-05-06T13:10:01.448Z,29.01
2023-05-06T13:15:05.606Z,28.98
2023-05-06T13:20:08.587Z,29.25
2023-05-06T13:25:11.891Z,29.34
2023-05-06T13:30:14.339Z,29.32
2023-05-06T13:35:16.744Z,29.59
2023-05-06T13:40:19.026Z,30.01
2023-05-06T13:45:21.293Z,30.17
2023-05-06T13:50:23.556Z,30.09
2023-05-06T13:55:25.890Z,29.69
2023-05-06T14:00:28.274Z,28.99
2023-05-06T14:05:30.902Z,29.33
2023-05-06T14:10:33.142Z,29.46
2023-05-06T14:15:35.555Z,30.09
2023-05-06T14:20:37.773Z,30.90
2023-05-06T14:25:40.602Z,31.77
2023-05-06T14:30:43.060Z,31.74
2023-05-06T14:35:46.568Z,32.28
2023-05-06T14:40:48.807Z,32.42
2023-05-06T14:45:51.160Z,32.27
2023-05-06T14:50:53.580Z,32.22
2023-05-06T14:55:56.840Z,32.36
2023-05-06T15:00:59.104Z,31.66
2023-05-06T15:06:01.433Z,31.31
2023-05-06T15:11:04.462Z,31.40
2023-05-06T15:16:10.519Z,31.50
2023-05-06T15:21:13.893Z,31.42
2023-05-06T15:26:16.559Z,31.03
2023-05-06T15:31:19.136Z,31.29
2023-05-06T15:36:21.402Z,31.05
2023-05-06T15:41:27.176Z,30.86
2023-05-06T15:57:23.019Z,28.95
2023-05-06T16:08:43.639Z,27.83
2023-05-06T16:13:46.793Z,27.59
2023-05-06T16:18:49.830Z,27.27
2023-05-06T16:23:52.132Z,27.09
2023-05-06T16:28:54.575Z,26.57
2023-05-06T16:33:56.957Z,26.55
2023-05-06T16:38:59.176Z,26.31
2023-05-06T16:44:02.510Z,26.20
2023-05-06T16:49:05.179Z,25.72
2023-05-06T16:54:07.523Z,25.90
2023-05-06T16:59:09.710Z,25.57
2023-05-06T17:04:12.009Z,25.52
2023-05-06T17:09:14.586Z,25.32
2023-05-06T17:14:17.156Z,24.97
2023-05-06T17:19:19.475Z,25.11
2023-05-06T17:24:22.135Z,24.61
2023-05-06T17:29:24.560Z,24.79
2023-05-06T17:34:27.147Z,24.53
2023-05-06T17:39:29.422Z,24.10
2023-05-06T17:44:32.105Z,24.31
2023-05-06T17:49:34.907Z,24.22
2023-05-06T17:54:38.617Z,24.03
2023-05-06T17:59:40.847Z,24.11
2023-05-06T18:04:44.996Z,23.83
2023-05-06T18:09:52.260Z,23.52
2023-05-06T18:14:55.757Z,23.56
2023-05-06T18:19:58.087Z,23.43
2023-05-06T18:25:00.364Z,23.40
2023-05-06T18:30:03.339Z,23.43
2023-05-06T18:35:05.904Z,23.31
2023-05-06T18:40:11.728Z,23.22
2023-05-06T18:45:13.988Z,22.93
2023-05-06T18:50:16.612Z,23.13
2023-05-06T18:55:18.898Z,23.07
2023-05-06T19:00:24.673Z,22.99
2023-05-06T19:05:27.004Z,22.70
2023-05-06T19:10:29.340Z,22.44
2023-05-06T19:15:32.203Z,22.63
2023-05-06T19:20:34.902Z,22.33
2023-05-06T19:25:39.156Z,22.16
2023-05-06T19:30:41.563Z,22.28
2023-05-06T19:35:43.937Z,22.26
2023-05-06T19:40:46.196Z,22.00
2023-05-06T19:45:48.488Z,22.06
2023-05-06T19:50:52.004Z,21.94
2023-05-06T19:55:56.505Z,21.89
2023-05-06T20:00:58.978Z,21.58
2023-05-06T20:06:01.832Z,21.79
2023-05-06T20:11:04.098Z,21.58
2023-05-06T20:16:07.174Z,21.42
2023-05-06T20:21:09.551Z,21.41
2023-05-06T20:26:11.931Z,21.35
2023-05-06T20:31:14.162Z,21.18
2023-05-06T20:36:17.231Z,21.23
2023-05-06T20:41:19.499Z,21.12
2023-05-06T20:46:22.001Z,21.22
2023-05-06T20:51:24.376Z,21.23
2023-05-06T20:56:27.247Z,21.07
2023-05-06T21:01:29.871Z,21.14
2023-05-06T21:06:33.216Z,20.83
2023-05-06T21:11:35.658Z,20.93
2023-05-06T21:16:40.105Z,20.84
2023-05-06T21:21:42.432Z,20.66
2023-05-06T21:26:44.711Z,20.77
2023-05-06T21:31:46.929Z,20.67
2023-05-06T21:36:49.187Z,20.67
2023-05-06T21:41:51.461Z,20.45
2023-05-06T21:46:53.823Z,20.59
2023-05-06T21:51:56.672Z,20.40
2023-05-06T21:56:58.869Z,20.39
2023-05-06T22:02:01.495Z,20.02
2023-05-06T22:07:04.170Z,20.20
2023-05-06T22:12:09.306Z,20.12
2023-05-06T22:17:12.793Z,19.84
2023-05-06T22:22:15.040Z,19.85
2023-05-06T22:27:17.260Z,19.98
2023-05-06T22:32:21.914Z,19.87
2023-05-06T22:37:30.027Z,19.97
2023-05-06T22:42:32.301Z,19.78
2023-05-06T22:47:34.612Z,19.83
2023-05-06T22:52:37.185Z,19.89
2023-05-06T22:57:39.496Z,19.99
2023-05-06T23:02:41.814Z,19.92
2023-05-06T23:07:44.074Z,19.72
2023-05-06T23:12:47.928Z,19.73
2023-05-06T23:17:50.255Z,19.10
2023-05-06T23:22:55.917Z,19.38
2023-05-06T23:27:58.156Z,19.36
2023-05-06T23:33:00.467Z,19.05
2023-05-06T23:38:02.870Z,19.19
2023-05-06T23:43:07.549Z,18.95
2023-05-06T23:48:09.860Z,19.10
2023-05-06T23:53:12.330Z,18.80
2023-05-06T23:58:14.854Z,18.68
